sensor_id;sensor_type;location;lat;lon;timestamp;P1;durP1;ratioP1;P2;durP2;ratioP2
10465;SDS011;5280;42.600;23.556;2022-12-18T00:00:42;5.77;;;5.27;;
10465;SDS011;5280;42.600;23.556;2022-12-18T00:03:11;5.27;;;4.77;;
10465;SDS011;5280;42.600;23.556;2022-12-18T00:05:45;5.43;;;4.93;;
10465;SDS011;5280;42.600;23.556;2022-12-18T00:08:12;4.70;;;4.30;;
10465;SDS011;5280;42.600;23.556;2022-12-18T00:10:39;7.53;;;4.73;;
10465;SDS011;5280;42.600;23.556;2022-12-18T00:13:06;5.63;;;4.93;;
10465;SDS011;5280;42.600;23.556;2022-12-18T00:15:33;5.53;;;4.80;;
10465;SDS011;5280;42.600;23.556;2022-12-18T00:18:00;5.63;;;5.03;;
10465;SDS011;5280;42.600;23.556;2022-12-18T00:20:28;5.77;;;5.07;;
10465;SDS011;5280;42.600;23.556;2022-12-18T00:22:55;26.33;;;15.53;;
10465;SDS011;5280;42.600;23.556;2022-12-18T00:25:21;6.00;;;5.43;;
10465;SDS011;5280;42.600;23.556;2022-12-18T00:27:49;6.63;;;5.50;;
10465;SDS011;5280;42.600;23.556;2022-12-18T00:30:16;5.87;;;5.27;;
10465;SDS011;5280;42.600;23.556;2022-12-18T00:32:42;5.10;;;4.60;;
10465;SDS011;5280;42.600;23.556;2022-12-18T00:35:09;5.60;;;5.07;;
10465;SDS011;5280;42.600;23.556;2022-12-18T00:37:37;5.47;;;4.97;;
10465;SDS011;5280;42.600;23.556;2022-12-18T00:40:04;5.50;;;4.70;;
10465;SDS011;5280;42.600;23.556;2022-12-18T00:42:35;5.00;;;4.50;;
10465;SDS011;5280;42.600;23.556;2022-12-18T00:45:19;4.93;;;4.40;;
10465;SDS011;5280;42.600;23.556;2022-12-18T00:47:49;6.07;;;5.37;;
10465;SDS011;5280;42.600;23.556;2022-12-18T00:50:16;5.17;;;4.73;;
10465;SDS011;5280;42.600;23.556;2022-12-18T00:52:44;4.70;;;4.30;;
10465;SDS011;5280;42.600;23.556;2022-12-18T00:55:11;5.37;;;4.80;;
10465;SDS011;5280;42.600;23.556;2022-12-18T00:57:39;5.23;;;4.73;;
10465;SDS011;5280;42.600;23.556;2022-12-18T01:00:07;4.57;;;4.13;;
10465;SDS011;5280;42.600;23.556;2022-12-18T01:02:36;4.90;;;4.47;;
10465;SDS011;5280;42.600;23.556;2022-12-18T01:05:03;6.83;;;5.27;;
10465;SDS011;5280;42.600;23.556;2022-12-18T01:07:30;5.60;;;5.10;;
10465;SDS011;5280;42.600;23.556;2022-12-18T01:09:59;5.93;;;5.33;;
10465;SDS011;5280;42.600;23.556;2022-12-18T01:12:25;5.10;;;4.63;;
10465;SDS011;5280;42.600;23.556;2022-12-18T01:14:52;5.37;;;4.83;;
10465;SDS011;5280;42.600;23.556;2022-12-18T01:17:19;5.60;;;4.50;;
10465;SDS011;5280;42.600;23.556;2022-12-18T01:19:46;9.43;;;5.60;;
10465;SDS011;5280;42.600;23.556;2022-12-18T01:22:12;6.20;;;5.60;;
10465;SDS011;5280;42.600;23.556;2022-12-18T01:24:39;4.70;;;4.23;;
10465;SDS011;5280;42.600;23.556;2022-12-18T01:27:10;5.70;;;5.20;;
10465;SDS011;5280;42.600;23.556;2022-12-18T01:29:38;4.90;;;4.40;;
10465;SDS011;5280;42.600;23.556;2022-12-18T01:32:04;6.10;;;4.70;;
10465;SDS011;5280;42.600;23.556;2022-12-18T01:34:31;5.13;;;4.50;;
10465;SDS011;5280;42.600;23.556;2022-12-18T01:37:01;4.83;;;4.43;;
10465;SDS011;5280;42.600;23.556;2022-12-18T01:39:29;5.73;;;5.13;;
10465;SDS011;5280;42.600;23.556;2022-12-18T01:41:57;5.83;;;5.00;;
10465;SDS011;5280;42.600;23.556;2022-12-18T01:47:34;5.53;;;5.00;;
10465;SDS011;5280;42.600;23.556;2022-12-18T01:50:06;7.53;;;5.70;;
10465;SDS011;5280;42.600;23.556;2022-12-18T01:52:40;5.53;;;5.03;;
10465;SDS011;5280;42.600;23.556;2022-12-18T01:55:09;5.57;;;4.67;;
10465;SDS011;5280;42.600;23.556;2022-12-18T01:57:37;5.33;;;4.63;;
10465;SDS011;5280;42.600;23.556;2022-12-18T02:00:07;5.53;;;5.00;;
10465;SDS011;5280;42.600;23.556;2022-12-18T02:02:37;5.70;;;4.77;;
10465;SDS011;5280;42.600;23.556;2022-12-18T02:05:06;5.50;;;5.00;;
10465;SDS011;5280;42.600;23.556;2022-12-18T02:07:36;5.00;;;4.50;;
10465;SDS011;5280;42.600;23.556;2022-12-18T02:10:11;5.17;;;4.50;;
10465;SDS011;5280;42.600;23.556;2022-12-18T02:12:45;5.23;;;4.70;;
10465;SDS011;5280;42.600;23.556;2022-12-18T02:15:22;4.77;;;4.20;;
10465;SDS011;5280;42.600;23.556;2022-12-18T02:17:54;5.03;;;4.53;;
10465;SDS011;5280;42.600;23.556;2022-12-18T02:20:26;6.57;;;4.77;;
10465;SDS011;5280;42.600;23.556;2022-12-18T02:23:03;7.10;;;5.20;;
10465;SDS011;5280;42.600;23.556;2022-12-18T02:25:40;5.50;;;4.97;;
10465;SDS011;5280;42.600;23.556;2022-12-18T02:28:19;6.33;;;4.77;;
10465;SDS011;5280;42.600;23.556;2022-12-18T02:30:50;6.07;;;4.97;;
10465;SDS011;5280;42.600;23.556;2022-12-18T02:33:20;7.70;;;4.80;;
10465;SDS011;5280;42.600;23.556;2022-12-18T02:35:53;5.63;;;4.67;;
10465;SDS011;5280;42.600;23.556;2022-12-18T02:38:22;5.60;;;4.53;;
10465;SDS011;5280;42.600;23.556;2022-12-18T02:40:52;5.73;;;5.10;;
10465;SDS011;5280;42.600;23.556;2022-12-18T02:43:20;5.67;;;5.13;;
10465;SDS011;5280;42.600;23.556;2022-12-18T02:45:47;6.00;;;4.80;;
10465;SDS011;5280;42.600;23.556;2022-12-18T02:48:17;6.00;;;5.23;;
10465;SDS011;5280;42.600;23.556;2022-12-18T02:50:48;4.80;;;4.30;;
10465;SDS011;5280;42.600;23.556;2022-12-18T02:53:27;4.73;;;4.23;;
10465;SDS011;5280;42.600;23.556;2022-12-18T02:56:03;6.17;;;4.70;;
10465;SDS011;5280;42.600;23.556;2022-12-18T02:58:34;4.83;;;4.33;;
10465;SDS011;5280;42.600;23.556;2022-12-18T03:01:09;4.93;;;4.43;;
10465;SDS011;5280;42.600;23.556;2022-12-18T03:03:42;12.80;;;8.17;;
10465;SDS011;5280;42.600;23.556;2022-12-18T03:06:15;5.93;;;4.80;;
10465;SDS011;5280;42.600;23.556;2022-12-18T03:08:48;5.40;;;4.90;;
10465;SDS011;5280;42.600;23.556;2022-12-18T03:11:21;6.10;;;4.97;;
10465;SDS011;5280;42.600;23.556;2022-12-18T03:14:04;5.57;;;4.57;;
10465;SDS011;5280;42.600;23.556;2022-12-18T03:16:34;5.13;;;4.63;;
10465;SDS011;5280;42.600;23.556;2022-12-18T03:19:03;6.67;;;5.07;;
10465;SDS011;5280;42.600;23.556;2022-12-18T03:21:33;5.63;;;4.50;;
10465;SDS011;5280;42.600;23.556;2022-12-18T03:24:06;4.63;;;4.23;;
10465;SDS011;5280;42.600;23.556;2022-12-18T03:26:37;5.93;;;4.60;;
10465;SDS011;5280;42.600;23.556;2022-12-18T03:29:11;4.47;;;4.03;;
10465;SDS011;5280;42.600;23.556;2022-12-18T03:31:41;5.67;;;4.37;;
10465;SDS011;5280;42.600;23.556;2022-12-18T03:34:14;5.23;;;4.47;;
10465;SDS011;5280;42.600;23.556;2022-12-18T03:36:46;6.53;;;4.97;;
10465;SDS011;5280;42.600;23.556;2022-12-18T03:39:13;5.10;;;4.53;;
10465;SDS011;5280;42.600;23.556;2022-12-18T03:41:43;5.43;;;4.73;;
10465;SDS011;5280;42.600;23.556;2022-12-18T03:44:14;7.20;;;5.13;;
10465;SDS011;5280;42.600;23.556;2022-12-18T03:46:47;6.17;;;5.57;;
10465;SDS011;5280;42.600;23.556;2022-12-18T03:49:23;7.53;;;4.90;;
10465;SDS011;5280;42.600;23.556;2022-12-18T03:51:54;5.97;;;4.57;;
10465;SDS011;5280;42.600;23.556;2022-12-18T03:54:28;5.67;;;4.73;;
10465;SDS011;5280;42.600;23.556;2022-12-18T03:56:59;5.37;;;4.50;;
10465;SDS011;5280;42.600;23.556;2022-12-18T03:59:31;5.77;;;4.80;;
10465;SDS011;5280;42.600;23.556;2022-12-18T04:01:59;6.90;;;4.93;;
10465;SDS011;5280;42.600;23.556;2022-12-18T04:04:27;5.43;;;4.80;;
10465;SDS011;5280;42.600;23.556;2022-12-18T04:06:57;5.53;;;5.03;;
10465;SDS011;5280;42.600;23.556;2022-12-18T04:09:24;5.90;;;5.10;;
10465;SDS011;5280;42.600;23.556;2022-12-18T04:11:52;6.17;;;5.03;;
10465;SDS011;5280;42.600;23.556;2022-12-18T04:14:20;7.23;;;5.07;;
10465;SDS011;5280;42.600;23.556;2022-12-18T04:16:47;8.07;;;5.57;;
10465;SDS011;5280;42.600;23.556;2022-12-18T04:19:13;7.13;;;5.30;;
10465;SDS011;5280;42.600;23.556;2022-12-18T04:21:40;7.30;;;5.53;;
10465;SDS011;5280;42.600;23.556;2022-12-18T04:24:07;6.90;;;5.43;;
10465;SDS011;5280;42.600;23.556;2022-12-18T04:26:34;6.03;;;5.43;;
10465;SDS011;5280;42.600;23.556;2022-12-18T04:29:02;6.70;;;5.87;;
10465;SDS011;5280;42.600;23.556;2022-12-18T04:31:30;6.53;;;5.93;;
10465;SDS011;5280;42.600;23.556;2022-12-18T04:33:57;6.77;;;5.87;;
10465;SDS011;5280;42.600;23.556;2022-12-18T04:36:23;6.47;;;5.67;;
10465;SDS011;5280;42.600;23.556;2022-12-18T04:38:53;6.97;;;5.90;;
10465;SDS011;5280;42.600;23.556;2022-12-18T04:41:20;8.63;;;6.20;;
10465;SDS011;5280;42.600;23.556;2022-12-18T04:43:47;6.43;;;5.37;;
10465;SDS011;5280;42.600;23.556;2022-12-18T04:46:14;6.67;;;5.93;;
10465;SDS011;5280;42.600;23.556;2022-12-18T04:48:44;5.90;;;5.30;;
10465;SDS011;5280;42.600;23.556;2022-12-18T04:51:12;8.03;;;6.03;;
10465;SDS011;5280;42.600;23.556;2022-12-18T04:53:39;6.23;;;5.63;;
10465;SDS011;5280;42.600;23.556;2022-12-18T04:56:06;8.30;;;6.07;;
10465;SDS011;5280;42.600;23.556;2022-12-18T04:58:35;7.63;;;6.17;;
10465;SDS011;5280;42.600;23.556;2022-12-18T05:01:02;8.53;;;6.47;;
10465;SDS011;5280;42.600;23.556;2022-12-18T05:03:30;6.40;;;5.77;;
10465;SDS011;5280;42.600;23.556;2022-12-18T05:05:58;7.23;;;5.70;;
10465;SDS011;5280;42.600;23.556;2022-12-18T05:08:25;7.10;;;6.37;;
10465;SDS011;5280;42.600;23.556;2022-12-18T05:10:57;7.70;;;5.97;;
10465;SDS011;5280;42.600;23.556;2022-12-18T05:13:24;6.90;;;5.80;;
10465;SDS011;5280;42.600;23.556;2022-12-18T05:15:51;8.43;;;6.50;;
10465;SDS011;5280;42.600;23.556;2022-12-18T05:18:18;9.23;;;6.17;;
10465;SDS011;5280;42.600;23.556;2022-12-18T05:20:45;8.90;;;7.17;;
10465;SDS011;5280;42.600;23.556;2022-12-18T05:23:13;9.80;;;7.10;;
10465;SDS011;5280;42.600;23.556;2022-12-18T05:25:41;8.27;;;6.27;;
10465;SDS011;5280;42.600;23.556;2022-12-18T05:28:07;9.93;;;6.70;;
10465;SDS011;5280;42.600;23.556;2022-12-18T05:30:34;49.13;;;24.67;;
10465;SDS011;5280;42.600;23.556;2022-12-18T05:33:01;8.63;;;6.93;;
10465;SDS011;5280;42.600;23.556;2022-12-18T05:35:28;8.63;;;7.30;;
10465;SDS011;5280;42.600;23.556;2022-12-18T05:37:55;9.40;;;7.07;;
10465;SDS011;5280;42.600;23.556;2022-12-18T05:40:23;8.17;;;7.37;;
10465;SDS011;5280;42.600;23.556;2022-12-18T05:42:50;10.83;;;7.47;;
10465;SDS011;5280;42.600;23.556;2022-12-18T05:45:17;8.87;;;7.33;;
10465;SDS011;5280;42.600;23.556;2022-12-18T05:47:44;10.27;;;7.80;;
10465;SDS011;5280;42.600;23.556;2022-12-18T05:50:11;9.37;;;7.43;;
10465;SDS011;5280;42.600;23.556;2022-12-18T05:52:37;9.63;;;7.73;;
10465;SDS011;5280;42.600;23.556;2022-12-18T05:55:04;11.63;;;7.43;;
10465;SDS011;5280;42.600;23.556;2022-12-18T05:57:33;9.40;;;7.13;;
10465;SDS011;5280;42.600;23.556;2022-12-18T06:00:00;10.13;;;7.43;;
10465;SDS011;5280;42.600;23.556;2022-12-18T06:02:27;9.53;;;7.13;;
10465;SDS011;5280;42.600;23.556;2022-12-18T06:04:53;9.40;;;7.20;;
10465;SDS011;5280;42.600;23.556;2022-12-18T06:07:20;8.87;;;7.43;;
10465;SDS011;5280;42.600;23.556;2022-12-18T06:09:47;9.60;;;7.27;;
10465;SDS011;5280;42.600;23.556;2022-12-18T06:12:14;10.33;;;7.00;;
10465;SDS011;5280;42.600;23.556;2022-12-18T06:14:42;11.27;;;8.47;;
10465;SDS011;5280;42.600;23.556;2022-12-18T06:17:09;9.27;;;7.80;;
10465;SDS011;5280;42.600;23.556;2022-12-18T06:19:36;10.50;;;7.63;;
10465;SDS011;5280;42.600;23.556;2022-12-18T06:22:03;11.70;;;8.17;;
10465;SDS011;5280;42.600;23.556;2022-12-18T06:24:30;9.67;;;8.10;;
10465;SDS011;5280;42.600;23.556;2022-12-18T06:26:56;10.17;;;7.57;;
10465;SDS011;5280;42.600;23.556;2022-12-18T06:29:23;11.80;;;8.13;;
10465;SDS011;5280;42.600;23.556;2022-12-18T06:31:51;9.47;;;7.60;;
10465;SDS011;5280;42.600;23.556;2022-12-18T06:34:18;8.23;;;6.43;;
10465;SDS011;5280;42.600;23.556;2022-12-18T06:36:45;8.37;;;6.93;;
10465;SDS011;5280;42.600;23.556;2022-12-18T06:39:12;8.90;;;6.63;;
10465;SDS011;5280;42.600;23.556;2022-12-18T06:41:38;9.60;;;7.90;;
10465;SDS011;5280;42.600;23.556;2022-12-18T06:44:05;11.33;;;7.77;;
10465;SDS011;5280;42.600;23.556;2022-12-18T06:46:32;10.30;;;7.97;;
10465;SDS011;5280;42.600;23.556;2022-12-18T06:49:00;11.20;;;8.27;;
10465;SDS011;5280;42.600;23.556;2022-12-18T06:51:27;12.10;;;8.20;;
10465;SDS011;5280;42.600;23.556;2022-12-18T06:53:54;9.30;;;7.67;;
10465;SDS011;5280;42.600;23.556;2022-12-18T06:56:21;9.60;;;7.33;;
10465;SDS011;5280;42.600;23.556;2022-12-18T06:58:47;10.17;;;8.27;;
10465;SDS011;5280;42.600;23.556;2022-12-18T07:01:17;11.63;;;8.23;;
10465;SDS011;5280;42.600;23.556;2022-12-18T07:03:44;10.77;;;8.13;;
10465;SDS011;5280;42.600;23.556;2022-12-18T07:06:16;10.63;;;8.30;;
10465;SDS011;5280;42.600;23.556;2022-12-18T07:08:44;12.10;;;8.23;;
10465;SDS011;5280;42.600;23.556;2022-12-18T07:11:12;12.37;;;9.13;;
10465;SDS011;5280;42.600;23.556;2022-12-18T07:13:39;10.47;;;8.67;;
10465;SDS011;5280;42.600;23.556;2022-12-18T07:16:06;11.33;;;8.97;;
10465;SDS011;5280;42.600;23.556;2022-12-18T07:18:37;11.83;;;8.67;;
10465;SDS011;5280;42.600;23.556;2022-12-18T07:21:05;13.23;;;9.17;;
10465;SDS011;5280;42.600;23.556;2022-12-18T07:23:34;10.80;;;8.33;;
10465;SDS011;5280;42.600;23.556;2022-12-18T07:26:02;11.47;;;9.30;;
10465;SDS011;5280;42.600;23.556;2022-12-18T07:28:29;11.80;;;8.43;;
10465;SDS011;5280;42.600;23.556;2022-12-18T07:30:56;10.93;;;8.13;;
10465;SDS011;5280;42.600;23.556;2022-12-18T07:33:23;10.73;;;8.67;;
10465;SDS011;5280;42.600;23.556;2022-12-18T07:35:50;12.43;;;8.77;;
10465;SDS011;5280;42.600;23.556;2022-12-18T07:38:17;12.10;;;8.50;;
10465;SDS011;5280;42.600;23.556;2022-12-18T07:40:46;11.50;;;8.93;;
10465;SDS011;5280;42.600;23.556;2022-12-18T07:43:12;10.40;;;7.97;;
10465;SDS011;5280;42.600;23.556;2022-12-18T07:45:39;10.93;;;8.43;;
10465;SDS011;5280;42.600;23.556;2022-12-18T07:48:06;10.50;;;8.10;;
10465;SDS011;5280;42.600;23.556;2022-12-18T07:50:32;11.47;;;8.60;;
10465;SDS011;5280;42.600;23.556;2022-12-18T07:52:59;10.10;;;8.23;;
10465;SDS011;5280;42.600;23.556;2022-12-18T07:55:28;10.70;;;8.20;;
10465;SDS011;5280;42.600;23.556;2022-12-18T07:57:56;9.53;;;7.80;;
10465;SDS011;5280;42.600;23.556;2022-12-18T08:00:23;10.80;;;8.03;;
10465;SDS011;5280;42.600;23.556;2022-12-18T08:02:50;11.37;;;8.77;;
10465;SDS011;5280;42.600;23.556;2022-12-18T08:05:17;13.97;;;9.20;;
10465;SDS011;5280;42.600;23.556;2022-12-18T08:07:44;10.37;;;8.50;;
10465;SDS011;5280;42.600;23.556;2022-12-18T08:10:10;12.20;;;9.47;;
10465;SDS011;5280;42.600;23.556;2022-12-18T08:12:37;11.80;;;8.67;;
10465;SDS011;5280;42.600;23.556;2022-12-18T08:15:06;12.57;;;9.13;;
10465;SDS011;5280;42.600;23.556;2022-12-18T08:17:33;12.53;;;9.30;;
10465;SDS011;5280;42.600;23.556;2022-12-18T08:20:01;13.20;;;10.03;;
10465;SDS011;5280;42.600;23.556;2022-12-18T08:22:30;13.63;;;9.50;;
10465;SDS011;5280;42.600;23.556;2022-12-18T08:24:56;12.63;;;9.10;;
10465;SDS011;5280;42.600;23.556;2022-12-18T08:27:23;13.43;;;9.53;;
10465;SDS011;5280;42.600;23.556;2022-12-18T08:29:50;12.57;;;9.63;;
10465;SDS011;5280;42.600;23.556;2022-12-18T08:32:18;12.20;;;9.27;;
10465;SDS011;5280;42.600;23.556;2022-12-18T08:34:45;12.10;;;8.50;;
10465;SDS011;5280;42.600;23.556;2022-12-18T08:37:11;11.40;;;8.37;;
10465;SDS011;5280;42.600;23.556;2022-12-18T08:39:38;12.90;;;9.63;;
10465;SDS011;5280;42.600;23.556;2022-12-18T08:42:05;12.63;;;8.77;;
10465;SDS011;5280;42.600;23.556;2022-12-18T08:44:50;13.93;;;9.30;;
10465;SDS011;5280;42.600;23.556;2022-12-18T08:47:16;13.13;;;8.97;;
10465;SDS011;5280;42.600;23.556;2022-12-18T08:49:44;14.37;;;10.07;;
10465;SDS011;5280;42.600;23.556;2022-12-18T08:52:14;15.13;;;10.60;;
10465;SDS011;5280;42.600;23.556;2022-12-18T08:54:41;14.40;;;9.97;;
10465;SDS011;5280;42.600;23.556;2022-12-18T08:57:07;15.43;;;10.83;;
10465;SDS011;5280;42.600;23.556;2022-12-18T08:59:34;14.83;;;9.73;;
10465;SDS011;5280;42.600;23.556;2022-12-18T09:02:01;14.37;;;9.53;;
10465;SDS011;5280;42.600;23.556;2022-12-18T09:04:29;13.47;;;9.60;;
10465;SDS011;5280;42.600;23.556;2022-12-18T09:06:56;14.90;;;9.97;;
10465;SDS011;5280;42.600;23.556;2022-12-18T09:09:23;15.77;;;10.03;;
10465;SDS011;5280;42.600;23.556;2022-12-18T09:11:49;15.03;;;10.37;;
10465;SDS011;5280;42.600;23.556;2022-12-18T09:14:16;13.67;;;10.13;;
10465;SDS011;5280;42.600;23.556;2022-12-18T09:16:43;16.73;;;10.33;;
10465;SDS011;5280;42.600;23.556;2022-12-18T09:19:10;14.80;;;11.00;;
10465;SDS011;5280;42.600;23.556;2022-12-18T09:21:38;14.23;;;10.67;;
10465;SDS011;5280;42.600;23.556;2022-12-18T09:24:05;15.43;;;11.07;;
10465;SDS011;5280;42.600;23.556;2022-12-18T09:26:32;13.50;;;9.93;;
10465;SDS011;5280;42.600;23.556;2022-12-18T09:28:59;15.13;;;10.23;;
10465;SDS011;5280;42.600;23.556;2022-12-18T09:31:26;15.20;;;10.63;;
10465;SDS011;5280;42.600;23.556;2022-12-18T09:33:54;13.40;;;9.70;;
10465;SDS011;5280;42.600;23.556;2022-12-18T09:36:21;16.83;;;10.70;;
10465;SDS011;5280;42.600;23.556;2022-12-18T09:38:49;13.80;;;9.90;;
10465;SDS011;5280;42.600;23.556;2022-12-18T09:41:19;14.70;;;10.63;;
10465;SDS011;5280;42.600;23.556;2022-12-18T09:44:09;13.40;;;9.87;;
10465;SDS011;5280;42.600;23.556;2022-12-18T09:46:43;14.27;;;10.33;;
10465;SDS011;5280;42.600;23.556;2022-12-18T09:49:13;14.63;;;10.60;;
10465;SDS011;5280;42.600;23.556;2022-12-18T09:51:44;12.80;;;9.93;;
10465;SDS011;5280;42.600;23.556;2022-12-18T09:54:16;16.43;;;10.97;;
10465;SDS011;5280;42.600;23.556;2022-12-18T09:56:47;15.17;;;10.47;;
10465;SDS011;5280;42.600;23.556;2022-12-18T09:59:18;13.63;;;10.07;;
10465;SDS011;5280;42.600;23.556;2022-12-18T10:01:48;15.23;;;10.93;;
10465;SDS011;5280;42.600;23.556;2022-12-18T10:04:15;15.10;;;10.70;;
10465;SDS011;5280;42.600;23.556;2022-12-18T10:06:43;13.57;;;10.10;;
10465;SDS011;5280;42.600;23.556;2022-12-18T10:09:23;12.87;;;9.60;;
10465;SDS011;5280;42.600;23.556;2022-12-18T10:11:56;15.00;;;10.20;;
10465;SDS011;5280;42.600;23.556;2022-12-18T10:14:34;13.20;;;9.97;;
10465;SDS011;5280;42.600;23.556;2022-12-18T10:17:12;14.70;;;9.97;;
10465;SDS011;5280;42.600;23.556;2022-12-18T10:19:45;11.67;;;8.83;;
10465;SDS011;5280;42.600;23.556;2022-12-18T10:22:19;14.27;;;9.87;;
10465;SDS011;5280;42.600;23.556;2022-12-18T10:25:00;11.87;;;8.80;;
10465;SDS011;5280;42.600;23.556;2022-12-18T10:27:33;14.03;;;9.60;;
10465;SDS011;5280;42.600;23.556;2022-12-18T10:30:00;13.20;;;10.40;;
10465;SDS011;5280;42.600;23.556;2022-12-18T10:32:30;12.47;;;9.73;;
10465;SDS011;5280;42.600;23.556;2022-12-18T10:34:57;15.03;;;9.83;;
10465;SDS011;5280;42.600;23.556;2022-12-18T10:37:25;15.03;;;10.10;;
10465;SDS011;5280;42.600;23.556;2022-12-18T10:40:08;12.57;;;9.83;;
10465;SDS011;5280;42.600;23.556;2022-12-18T10:42:37;13.73;;;10.10;;
10465;SDS011;5280;42.600;23.556;2022-12-18T10:45:06;13.53;;;9.63;;
10465;SDS011;5280;42.600;23.556;2022-12-18T10:47:36;12.80;;;9.83;;
10465;SDS011;5280;42.600;23.556;2022-12-18T10:50:11;15.70;;;10.20;;
10465;SDS011;5280;42.600;23.556;2022-12-18T10:52:50;13.17;;;9.80;;
10465;SDS011;5280;42.600;23.556;2022-12-18T10:55:21;12.43;;;9.90;;
10465;SDS011;5280;42.600;23.556;2022-12-18T10:57:50;13.17;;;10.07;;
10465;SDS011;5280;42.600;23.556;2022-12-18T11:00:21;13.20;;;9.50;;
10465;SDS011;5280;42.600;23.556;2022-12-18T11:02:50;14.47;;;10.37;;
10465;SDS011;5280;42.600;23.556;2022-12-18T11:05:28;14.67;;;10.83;;
10465;SDS011;5280;42.600;23.556;2022-12-18T11:07:56;14.23;;;9.90;;
10465;SDS011;5280;42.600;23.556;2022-12-18T11:10:28;14.63;;;10.57;;
10465;SDS011;5280;42.600;23.556;2022-12-18T11:13:08;14.73;;;10.63;;
10465;SDS011;5280;42.600;23.556;2022-12-18T11:15:37;14.93;;;11.43;;
10465;SDS011;5280;42.600;23.556;2022-12-18T11:18:13;16.30;;;11.07;;
10465;SDS011;5280;42.600;23.556;2022-12-18T11:20:49;15.37;;;10.33;;
10465;SDS011;5280;42.600;23.556;2022-12-18T11:23:18;15.90;;;11.20;;
10465;SDS011;5280;42.600;23.556;2022-12-18T11:25:51;15.13;;;10.77;;
10465;SDS011;5280;42.600;23.556;2022-12-18T11:28:28;16.27;;;10.60;;
10465;SDS011;5280;42.600;23.556;2022-12-18T11:31:18;14.47;;;10.73;;
10465;SDS011;5280;42.600;23.556;2022-12-18T11:33:49;13.70;;;10.20;;
10465;SDS011;5280;42.600;23.556;2022-12-18T11:36:21;14.47;;;10.77;;
10465;SDS011;5280;42.600;23.556;2022-12-18T11:38:52;15.50;;;11.10;;
10465;SDS011;5280;42.600;23.556;2022-12-18T11:41:24;17.03;;;11.37;;
10465;SDS011;5280;42.600;23.556;2022-12-18T11:44:13;15.27;;;11.10;;
10465;SDS011;5280;42.600;23.556;2022-12-18T11:46:45;17.63;;;12.20;;
10465;SDS011;5280;42.600;23.556;2022-12-18T11:49:19;15.80;;;11.93;;
10465;SDS011;5280;42.600;23.556;2022-12-18T11:51:52;15.77;;;10.83;;
10465;SDS011;5280;42.600;23.556;2022-12-18T11:54:24;15.80;;;10.73;;
10465;SDS011;5280;42.600;23.556;2022-12-18T11:56:55;14.90;;;10.93;;
10465;SDS011;5280;42.600;23.556;2022-12-18T11:59:31;16.70;;;11.20;;
10465;SDS011;5280;42.600;23.556;2022-12-18T12:02:17;13.47;;;9.97;;
10465;SDS011;5280;42.600;23.556;2022-12-18T12:05:05;12.83;;;9.57;;
10465;SDS011;5280;42.600;23.556;2022-12-18T12:07:47;14.97;;;9.70;;
10465;SDS011;5280;42.600;23.556;2022-12-18T12:10:25;15.73;;;11.13;;
10465;SDS011;5280;42.600;23.556;2022-12-18T12:13:12;12.77;;;9.07;;
10465;SDS011;5280;42.600;23.556;2022-12-18T12:15:50;15.20;;;10.50;;
10465;SDS011;5280;42.600;23.556;2022-12-18T12:18:28;15.47;;;10.03;;
10465;SDS011;5280;42.600;23.556;2022-12-18T12:21:09;16.87;;;11.97;;
10465;SDS011;5280;42.600;23.556;2022-12-18T12:23:43;17.27;;;11.63;;
10465;SDS011;5280;42.600;23.556;2022-12-18T12:26:21;16.97;;;10.17;;
10465;SDS011;5280;42.600;23.556;2022-12-18T12:28:59;14.80;;;10.37;;
10465;SDS011;5280;42.600;23.556;2022-12-18T12:31:36;18.87;;;11.70;;
10465;SDS011;5280;42.600;23.556;2022-12-18T12:34:16;17.40;;;11.17;;
10465;SDS011;5280;42.600;23.556;2022-12-18T12:36:51;17.17;;;10.57;;
10465;SDS011;5280;42.600;23.556;2022-12-18T12:39:30;14.80;;;10.20;;
10465;SDS011;5280;42.600;23.556;2022-12-18T12:41:59;16.07;;;9.60;;
10465;SDS011;5280;42.600;23.556;2022-12-18T12:44:46;16.73;;;10.90;;
10465;SDS011;5280;42.600;23.556;2022-12-18T12:47:18;13.80;;;10.27;;
10465;SDS011;5280;42.600;23.556;2022-12-18T12:49:51;13.17;;;10.10;;
10465;SDS011;5280;42.600;23.556;2022-12-18T12:52:21;17.27;;;10.70;;
10465;SDS011;5280;42.600;23.556;2022-12-18T12:54:56;15.03;;;10.17;;
10465;SDS011;5280;42.600;23.556;2022-12-18T12:57:26;15.57;;;11.03;;
10465;SDS011;5280;42.600;23.556;2022-12-18T13:00:03;17.00;;;10.50;;
10465;SDS011;5280;42.600;23.556;2022-12-18T13:02:34;13.83;;;10.07;;
10465;SDS011;5280;42.600;23.556;2022-12-18T13:05:09;14.17;;;9.93;;
10465;SDS011;5280;42.600;23.556;2022-12-18T13:07:49;14.00;;;9.80;;
10465;SDS011;5280;42.600;23.556;2022-12-18T13:10:23;12.60;;;9.87;;
10465;SDS011;5280;42.600;23.556;2022-12-18T13:12:59;16.63;;;10.97;;
10465;SDS011;5280;42.600;23.556;2022-12-18T13:15:30;16.07;;;10.87;;
10465;SDS011;5280;42.600;23.556;2022-12-18T13:18:04;16.90;;;11.90;;
10465;SDS011;5280;42.600;23.556;2022-12-18T13:20:39;13.23;;;10.37;;
10465;SDS011;5280;42.600;23.556;2022-12-18T13:25:59;17.03;;;11.47;;
10465;SDS011;5280;42.600;23.556;2022-12-18T13:28:50;16.63;;;11.43;;
10465;SDS011;5280;42.600;23.556;2022-12-18T13:34:26;16.93;;;11.50;;
10465;SDS011;5280;42.600;23.556;2022-12-18T13:36:56;15.30;;;11.70;;
10465;SDS011;5280;42.600;23.556;2022-12-18T13:39:44;16.30;;;11.27;;
10465;SDS011;5280;42.600;23.556;2022-12-18T13:48:26;17.10;;;10.93;;
10465;SDS011;5280;42.600;23.556;2022-12-18T13:50:57;16.53;;;11.63;;
10465;SDS011;5280;42.600;23.556;2022-12-18T13:53:28;15.77;;;11.37;;
10465;SDS011;5280;42.600;23.556;2022-12-18T13:56:03;16.13;;;11.37;;
10465;SDS011;5280;42.600;23.556;2022-12-18T13:58:31;16.23;;;11.87;;
10465;SDS011;5280;42.600;23.556;2022-12-18T14:00:58;20.53;;;12.43;;
10465;SDS011;5280;42.600;23.556;2022-12-18T14:03:27;15.63;;;11.67;;
10465;SDS011;5280;42.600;23.556;2022-12-18T14:06:02;17.37;;;11.80;;
10465;SDS011;5280;42.600;23.556;2022-12-18T14:08:36;18.23;;;12.23;;
10465;SDS011;5280;42.600;23.556;2022-12-18T14:11:07;18.13;;;12.57;;
10465;SDS011;5280;42.600;23.556;2022-12-18T14:13:44;19.13;;;13.40;;
10465;SDS011;5280;42.600;23.556;2022-12-18T14:16:13;18.30;;;13.10;;
10465;SDS011;5280;42.600;23.556;2022-12-18T14:18:44;19.17;;;12.10;;
10465;SDS011;5280;42.600;23.556;2022-12-18T14:21:20;16.53;;;11.87;;
10465;SDS011;5280;42.600;23.556;2022-12-18T14:23:49;20.13;;;14.20;;
10465;SDS011;5280;42.600;23.556;2022-12-18T14:26:31;17.87;;;12.03;;
10465;SDS011;5280;42.600;23.556;2022-12-18T14:28:59;16.87;;;11.23;;
10465;SDS011;5280;42.600;23.556;2022-12-18T14:31:28;17.40;;;11.70;;
10465;SDS011;5280;42.600;23.556;2022-12-18T14:33:57;17.13;;;12.10;;
10465;SDS011;5280;42.600;23.556;2022-12-18T14:36:24;19.27;;;11.97;;
10465;SDS011;5280;42.600;23.556;2022-12-18T14:38:52;16.00;;;10.93;;
10465;SDS011;5280;42.600;23.556;2022-12-18T14:41:20;17.80;;;12.40;;
10465;SDS011;5280;42.600;23.556;2022-12-18T14:43:50;16.47;;;11.30;;
10465;SDS011;5280;42.600;23.556;2022-12-18T14:46:28;19.40;;;12.47;;
10465;SDS011;5280;42.600;23.556;2022-12-18T14:48:59;18.40;;;12.27;;
10465;SDS011;5280;42.600;23.556;2022-12-18T14:51:28;19.10;;;13.23;;
10465;SDS011;5280;42.600;23.556;2022-12-18T14:53:57;17.60;;;11.70;;
10465;SDS011;5280;42.600;23.556;2022-12-18T14:56:27;17.90;;;12.93;;
10465;SDS011;5280;42.600;23.556;2022-12-18T14:58:57;19.33;;;13.07;;
10465;SDS011;5280;42.600;23.556;2022-12-18T15:01:26;16.30;;;12.03;;
10465;SDS011;5280;42.600;23.556;2022-12-18T15:03:56;17.70;;;12.60;;
10465;SDS011;5280;42.600;23.556;2022-12-18T15:06:25;16.67;;;12.03;;
10465;SDS011;5280;42.600;23.556;2022-12-18T15:09:00;19.63;;;13.40;;